Portada
METAR-TAF:

METAR-TAF

Aeroports :

Tanna, Vanuatu

latitud: 19-27-18S, longitud: 169-13-26E, altitud: 6 m

Observació

L'informe es va fer fa 42 minuts, a les 05:00 UTC
Vent calma
Temperatura 27°C
Humitat 79%
Pressió 1011 hPa
Visibilitat 10 km o més
Núvols disperses a una alçada de 2200 ft

METAR: NVVW 260500Z 00000KT 9999 SCT022 27/23 Q1011

Hora: 16:42 (05:42 UTC)

Pronòstic

L'informe es va fer fa 1 hora i 12 minuts, a les 04:30 UTC
Pronòstic vàlid del 26 a les 06 UTC al 27 a les 06 UTC
Vent 2 kt amb direcció variable
Visibilitat 10 km o més
Escasses núvols a una alçada de 1800 ft
Núvols disperses a una alçada de 2000 ft

TAF: NVVW 260430Z 2606/2706 VRB02KT 9999 FEW018 SCT020

Observacions i pronòstics meteorològics de més de 4000 aeroports (METAR i TAF).

Les estacions disponibles són els punts grocs i vermells al mapa.

Posi el ratolí al punt desitjat per veure el nom de l'estació.

Feu clic per veure les observacions i els pronòstics meteorològics.

Per canviar el mapa: feu clic els botons verds amb una creu de color negre per apropar; al botó verd amb un guió per allunyar la imatge; o en les fletxes verdes per a mapes adjacents.


METAR-TAF: